createdAt,value
2022-08-20T00:02:19.515Z,23.00
2022-08-20T00:04:52.041Z,23.06
2022-08-20T00:07:24.076Z,23.10
2022-08-20T00:09:56.076Z,23.04
2022-08-20T00:12:28.090Z,22.99
2022-08-20T00:15:00.518Z,23.04
2022-08-20T00:17:41.460Z,23.04
2022-08-20T00:20:13.995Z,23.05
2022-08-20T00:22:47.016Z,23.05
2022-08-20T00:25:19.818Z,23.14
2022-08-20T00:27:51.915Z,23.18
2022-08-20T00:30:26.520Z,23.19
2022-08-20T00:33:08.147Z,23.21
2022-08-20T00:35:46.397Z,23.19
2022-08-20T00:38:19.735Z,23.16
2022-08-20T00:40:58.096Z,23.18
2022-08-20T00:43:45.712Z,23.12
2022-08-20T00:46:27.925Z,23.05
2022-08-20T00:49:08.701Z,22.87
2022-08-20T00:51:54.755Z,22.73
2022-08-20T00:54:50.317Z,22.59
2022-08-20T00:57:44.478Z,22.42
2022-08-20T01:00:34.494Z,22.34
2022-08-20T01:03:10.003Z,22.36
2022-08-20T01:05:47.112Z,22.27
2022-08-20T01:08:24.690Z,22.21
2022-08-20T01:11:09.454Z,22.15
2022-08-20T01:13:44.385Z,22.18
2022-08-20T01:16:24.191Z,22.23
2022-08-20T01:18:57.742Z,22.21
2022-08-20T01:21:33.589Z,22.25
2022-08-20T01:24:22.497Z,22.24
2022-08-20T01:26:55.507Z,22.20
2022-08-20T01:29:35.987Z,22.21
2022-08-20T01:32:08.007Z,22.16
2022-08-20T01:34:40.239Z,22.12
2022-08-20T01:37:12.279Z,22.11
2022-08-20T01:39:44.295Z,22.09
2022-08-20T01:42:20.735Z,22.04
2022-08-20T01:44:52.995Z,21.99
2022-08-20T01:47:36.454Z,21.91
2022-08-20T01:50:23.267Z,21.76
2022-08-20T01:53:18.911Z,21.62
2022-08-20T01:55:51.089Z,21.44
2022-08-20T01:58:23.114Z,21.35
2022-08-20T02:00:55.653Z,21.21
2022-08-20T02:03:27.798Z,21.18
2022-08-20T02:06:02.195Z,21.09
2022-08-20T02:08:34.282Z,21.02
2022-08-20T02:11:07.033Z,21.00
2022-08-20T02:13:40.709Z,21.05
2022-08-20T02:16:12.702Z,21.10
2022-08-20T02:18:44.964Z,21.20
2022-08-20T02:21:17.517Z,21.23
2022-08-20T02:23:49.645Z,21.21
2022-08-20T02:26:22.551Z,21.24
2022-08-20T02:28:55.820Z,21.27
2022-08-20T02:31:31.764Z,21.32
2022-08-20T02:34:21.994Z,21.31
2022-08-20T02:36:54.995Z,21.33
2022-08-20T02:39:27.525Z,21.35
2022-08-20T02:41:59.877Z,21.33
2022-08-20T02:44:32.316Z,21.35
2022-08-20T02:47:05.877Z,21.38
2022-08-20T02:49:37.938Z,21.44
2022-08-20T02:52:09.933Z,21.48
2022-08-20T02:54:42.042Z,21.50
2022-08-20T02:57:15.769Z,21.46
2022-08-20T02:59:48.582Z,21.48
2022-08-20T03:02:21.650Z,21.48
2022-08-20T03:04:53.646Z,21.50
2022-08-20T03:07:25.629Z,21.48
2022-08-20T03:09:57.635Z,21.46
2022-08-20T03:12:29.596Z,21.50
2022-08-20T03:15:01.838Z,21.53
2022-08-20T03:17:33.794Z,21.52
2022-08-20T03:20:08.638Z,21.48
2022-08-20T03:22:41.109Z,21.46
2022-08-20T03:25:13.187Z,21.42
2022-08-20T03:27:47.183Z,21.45
2022-08-20T03:30:28.770Z,21.45
2022-08-20T03:33:01.056Z,21.48
2022-08-20T03:35:36.301Z,21.52
2022-08-20T03:38:11.115Z,21.58
2022-08-20T03:40:43.468Z,21.63
2022-08-20T03:43:16.092Z,21.66
2022-08-20T03:45:48.320Z,21.67
2022-08-20T03:48:21.745Z,21.64
2022-08-20T03:50:56.610Z,21.67
2022-08-20T03:53:31.921Z,21.74
2022-08-20T03:56:06.533Z,21.77
2022-08-20T03:58:38.626Z,21.72
2022-08-20T04:01:36.899Z,21.73
2022-08-20T04:04:02.813Z,21.68
2022-08-20T04:06:34.908Z,21.69
2022-08-20T04:09:06.869Z,21.67
2022-08-20T04:11:42.421Z,21.69
2022-08-20T04:14:18.465Z,21.68
2022-08-20T04:16:50.872Z,21.67
2022-08-20T04:19:23.697Z,21.65
2022-08-20T04:21:55.671Z,21.64
2022-08-20T04:24:32.184Z,21.65
2022-08-20T04:27:05.422Z,21.63
2022-08-20T04:29:43.079Z,21.64
2022-08-20T04:32:15.174Z,21.67
2022-08-20T04:34:52.187Z,21.69
2022-08-20T04:37:24.854Z,21.72
2022-08-20T04:40:15.187Z,21.71
2022-08-20T04:42:47.301Z,21.73
2022-08-20T04:45:25.433Z,21.73
2022-08-20T04:47:57.750Z,21.71
2022-08-20T04:50:29.832Z,21.68
2022-08-20T04:53:09.351Z,21.69
2022-08-20T04:55:43.026Z,21.67
2022-08-20T04:58:28.042Z,21.65
2022-08-20T05:01:07.050Z,21.63
2022-08-20T05:03:41.268Z,21.60
2022-08-20T05:06:13.334Z,21.60
2022-08-20T05:08:45.619Z,21.66
2022-08-20T05:11:36.109Z,21.65
2022-08-20T05:14:09.690Z,21.67
2022-08-20T05:16:41.779Z,21.69
2022-08-20T05:19:13.861Z,21.67
2022-08-20T05:21:45.826Z,21.55
2022-08-20T05:24:17.797Z,21.54
2022-08-20T05:26:49.772Z,21.53
2022-08-20T05:29:23.409Z,21.57
2022-08-20T05:31:56.630Z,21.55
2022-08-20T05:34:28.798Z,21.52
2022-08-20T05:37:04.486Z,21.54
2022-08-20T05:39:39.820Z,21.57
2022-08-20T05:42:12.179Z,21.63
2022-08-20T05:44:46.456Z,21.71
2022-08-20T05:47:18.474Z,21.70
2022-08-20T05:49:52.224Z,21.75
2022-08-20T05:52:24.326Z,21.75
2022-08-20T05:54:56.339Z,21.77
2022-08-20T05:57:28.301Z,21.83
2022-08-20T06:00:02.872Z,21.92
2022-08-20T06:02:53.168Z,21.99
2022-08-20T06:05:25.791Z,22.01
2022-08-20T06:07:57.899Z,22.12
2022-08-20T06:10:42.609Z,22.21
2022-08-20T06:13:15.261Z,22.34
2022-08-20T06:15:47.575Z,22.43
2022-08-20T06:18:28.261Z,22.46
2022-08-20T06:21:00.868Z,22.55
2022-08-20T06:23:40.178Z,22.63
2022-08-20T06:26:30.480Z,22.57
2022-08-20T06:29:05.873Z,22.54
2022-08-20T06:31:40.056Z,22.49
2022-08-20T06:34:13.239Z,22.38
2022-08-20T06:36:46.927Z,22.39
2022-08-20T06:39:18.884Z,22.42
2022-08-20T06:41:51.944Z,22.50
2022-08-20T06:44:26.051Z,22.57
2022-08-20T06:47:02.285Z,22.55
2022-08-20T06:49:37.441Z,22.52
2022-08-20T06:52:09.825Z,22.53
2022-08-20T06:54:45.806Z,22.42
2022-08-20T06:57:17.810Z,22.40
2022-08-20T06:59:54.318Z,22.29
2022-08-20T07:02:29.274Z,22.14
2022-08-20T07:05:04.933Z,22.25
2022-08-20T07:07:37.683Z,22.42
2022-08-20T07:10:13.697Z,22.60
2022-08-20T07:12:47.061Z,22.71
2022-08-20T07:15:23.084Z,22.84
2022-08-20T07:18:01.679Z,22.91
2022-08-20T07:20:37.172Z,22.88
2022-08-20T07:23:12.164Z,22.79
2022-08-20T07:25:44.693Z,22.86
2022-08-20T07:28:23.251Z,22.97
2022-08-20T07:31:16.009Z,23.06
2022-08-20T07:33:50.330Z,23.17
2022-08-20T07:36:23.243Z,23.21
2022-08-20T07:38:57.044Z,23.18
2022-08-20T07:41:29.100Z,23.23
2022-08-20T07:44:01.170Z,23.35
2022-08-20T07:46:33.371Z,23.41
2022-08-20T07:49:10.061Z,23.35
2022-08-20T07:51:42.137Z,23.38
2022-08-20T07:54:14.112Z,23.31
2022-08-20T07:56:46.166Z,23.35
2022-08-20T07:59:21.804Z,23.38
2022-08-20T08:01:53.800Z,23.37
2022-08-20T08:04:26.167Z,23.44
2022-08-20T08:07:00.265Z,23.48
2022-08-20T08:09:33.838Z,23.40
2022-08-20T08:12:06.259Z,23.43
2022-08-20T08:14:40.488Z,23.47
2022-08-20T08:17:13.245Z,23.53
2022-08-20T08:19:49.486Z,23.63
2022-08-20T08:22:21.496Z,23.59
2022-08-20T08:24:57.069Z,23.64
2022-08-20T08:27:32.677Z,23.44
2022-08-20T08:30:05.616Z,23.40
2022-08-20T08:32:58.519Z,23.52
2022-08-20T08:35:33.309Z,23.53
2022-08-20T08:38:05.705Z,23.62
2022-08-20T08:40:38.467Z,23.87
2022-08-20T08:43:13.865Z,23.83
2022-08-20T08:46:01.598Z,23.99
2022-08-20T08:48:39.198Z,24.31
2022-08-20T08:51:16.374Z,24.37
2022-08-20T08:53:54.872Z,24.41
2022-08-20T08:56:31.300Z,24.63
2022-08-20T08:59:08.685Z,24.73
2022-08-20T09:01:55.063Z,24.94
2022-08-20T09:04:37.219Z,25.00
2022-08-20T09:07:15.304Z,25.03
2022-08-20T09:09:47.539Z,25.06
2022-08-20T09:12:24.808Z,24.99
2022-08-20T09:14:57.464Z,25.27
2022-08-20T09:17:29.455Z,25.69
2022-08-20T09:20:01.434Z,26.07
2022-08-20T09:22:33.687Z,25.95
2022-08-20T09:25:06.547Z,25.60
2022-08-20T09:27:38.863Z,26.05
2022-08-20T09:30:15.319Z,27.04
2022-08-20T09:32:47.424Z,27.97
2022-08-20T09:35:19.410Z,28.43
2022-08-20T09:37:52.847Z,28.75
2022-08-20T09:40:24.919Z,29.16
2022-08-20T09:42:57.153Z,29.44
2022-08-20T09:45:29.426Z,29.70
2022-08-20T09:48:01.660Z,29.49
2022-08-20T09:50:36.491Z,29.23
2022-08-20T09:53:09.889Z,29.42
2022-08-20T09:55:50.151Z,29.54
2022-08-20T09:58:49.171Z,29.26
2022-08-20T10:01:22.804Z,29.11
2022-08-20T10:03:54.849Z,29.07
2022-08-20T10:06:26.966Z,28.97
2022-08-20T10:08:59.612Z,29.03
2022-08-20T10:11:31.623Z,29.25
2022-08-20T10:14:05.002Z,29.57
2022-08-20T10:16:37.759Z,30.18
2022-08-20T10:19:09.750Z,30.60
2022-08-20T10:21:41.752Z,30.57
2022-08-20T10:24:14.745Z,30.15
2022-08-20T10:26:47.805Z,29.50
2022-08-20T10:29:19.788Z,29.13
2022-08-20T10:31:51.966Z,28.51
2022-08-20T10:34:25.694Z,27.91
2022-08-20T10:36:59.066Z,28.08
2022-08-20T10:39:31.626Z,28.05
2022-08-20T10:42:03.956Z,28.63
2022-08-20T10:44:36.018Z,29.33
2022-08-20T10:47:31.502Z,30.39
2022-08-20T10:50:08.809Z,31.15
2022-08-20T10:52:41.030Z,31.67
2022-08-20T10:55:13.222Z,31.63
2022-08-20T10:57:45.714Z,31.43
2022-08-20T11:00:19.528Z,31.26
2022-08-20T11:02:51.986Z,32.40
2022-08-20T11:05:24.073Z,33.84
2022-08-20T11:07:56.865Z,34.92
2022-08-20T11:10:31.078Z,35.47
2022-08-20T11:13:06.210Z,36.68
2022-08-20T11:15:42.249Z,37.67
2022-08-20T11:18:14.517Z,38.22
2022-08-20T11:20:46.769Z,38.31
2022-08-20T11:23:18.733Z,38.40
2022-08-20T11:25:51.231Z,38.57
2022-08-20T11:28:31.325Z,38.87
2022-08-20T11:31:04.575Z,39.63
2022-08-20T11:33:36.558Z,40.18
2022-08-20T11:36:09.006Z,39.81
2022-08-20T11:38:40.999Z,39.44
2022-08-20T11:41:13.159Z,39.40
2022-08-20T11:43:55.140Z,40.46
2022-08-20T11:46:37.121Z,40.40
2022-08-20T11:49:09.287Z,40.64
2022-08-20T11:51:49.900Z,40.73
2022-08-20T11:54:22.294Z,40.96
2022-08-20T11:56:57.925Z,41.31
2022-08-20T11:59:29.937Z,41.03
2022-08-20T12:02:02.968Z,41.15
2022-08-20T12:04:42.360Z,41.52
2022-08-20T12:07:19.013Z,41.38
2022-08-20T12:09:51.636Z,41.43
2022-08-20T12:12:24.271Z,41.49
2022-08-20T12:14:56.265Z,41.21
2022-08-20T12:17:30.370Z,40.63
2022-08-20T12:20:10.060Z,40.56
2022-08-20T12:22:43.959Z,40.41
2022-08-20T12:25:16.436Z,40.65
2022-08-20T12:27:48.453Z,39.72
2022-08-20T12:30:23.818Z,40.18
2022-08-20T12:32:56.047Z,40.48
2022-08-20T12:35:28.214Z,41.04
2022-08-20T12:38:05.893Z,41.45
2022-08-20T12:40:38.167Z,41.44
2022-08-20T12:43:10.273Z,40.81
2022-08-20T12:45:42.308Z,38.92
2022-08-20T12:48:14.419Z,38.60
2022-08-20T12:50:46.519Z,39.10
2022-08-20T12:53:19.055Z,39.61
2022-08-20T12:55:51.130Z,38.99
2022-08-20T12:58:23.158Z,38.97
2022-08-20T13:00:55.148Z,39.32
2022-08-20T13:03:27.213Z,38.50
2022-08-20T13:06:04.283Z,37.31
2022-08-20T13:08:36.286Z,36.69
2022-08-20T13:11:08.238Z,35.93
2022-08-20T13:13:40.307Z,35.32
2022-08-20T13:16:12.482Z,34.69
2022-08-20T13:18:45.547Z,34.36
2022-08-20T13:21:21.070Z,33.42
2022-08-20T13:23:55.468Z,33.40
2022-08-20T13:26:27.471Z,33.24
2022-08-20T13:28:59.483Z,33.19
2022-08-20T13:31:32.875Z,32.71
2022-08-20T13:34:04.946Z,32.30
2022-08-20T13:36:37.174Z,31.53
2022-08-20T13:39:09.231Z,31.56
2022-08-20T13:41:41.273Z,31.58
2022-08-20T13:44:13.430Z,31.32
2022-08-20T13:46:47.269Z,31.26
2022-08-20T13:49:19.273Z,31.16
2022-08-20T13:51:52.213Z,31.01
2022-08-20T13:54:28.289Z,31.11
2022-08-20T13:57:12.651Z,31.61
2022-08-20T13:59:49.323Z,31.49
2022-08-20T14:02:22.406Z,30.80
2022-08-20T14:04:55.169Z,30.43
2022-08-20T14:07:32.481Z,30.22
2022-08-20T14:10:13.852Z,30.02
2022-08-20T14:12:46.045Z,30.07
2022-08-20T14:15:18.527Z,29.85
2022-08-20T14:17:54.086Z,29.74
2022-08-20T14:20:32.219Z,29.96
2022-08-20T14:23:04.428Z,30.25
2022-08-20T14:25:39.375Z,30.23
2022-08-20T14:28:21.718Z,30.20
2022-08-20T14:30:53.939Z,29.92
2022-08-20T14:33:25.964Z,29.50
2022-08-20T14:35:57.960Z,29.40
2022-08-20T14:38:29.957Z,29.42
2022-08-20T14:41:01.999Z,29.37
2022-08-20T14:43:33.972Z,28.98
2022-08-20T14:46:06.142Z,28.69
2022-08-20T14:48:38.234Z,28.56
2022-08-20T14:51:10.670Z,28.45
2022-08-20T14:53:42.615Z,28.38
2022-08-20T14:56:15.739Z,28.49
2022-08-20T14:58:47.771Z,28.57
2022-08-20T15:01:20.010Z,28.61
2022-08-20T15:03:52.078Z,28.65
2022-08-20T15:06:25.348Z,28.67
2022-08-20T15:08:57.677Z,28.52
2022-08-20T15:11:33.937Z,28.30
2022-08-20T15:14:08.207Z,28.22
2022-08-20T15:16:40.876Z,28.14
2022-08-20T15:19:13.141Z,28.04
2022-08-20T15:21:45.872Z,27.93
2022-08-20T15:24:19.383Z,27.74
2022-08-20T15:26:51.626Z,27.75
2022-08-20T15:29:23.717Z,27.56
2022-08-20T15:31:55.752Z,27.54
2022-08-20T15:34:27.716Z,27.48
2022-08-20T15:37:00.475Z,27.36
2022-08-20T15:39:32.657Z,27.22
2022-08-20T15:42:05.681Z,27.00
2022-08-20T15:44:37.966Z,27.00
2022-08-20T15:47:28.362Z,26.74
2022-08-20T15:50:14.009Z,26.66
2022-08-20T15:52:46.576Z,26.52
2022-08-20T15:55:18.634Z,26.59
2022-08-20T15:58:11.019Z,26.58
2022-08-20T16:01:24.850Z,26.52
2022-08-20T16:04:52.920Z,26.59
2022-08-20T16:07:50.647Z,26.49
2022-08-20T16:11:11.543Z,26.46
2022-08-20T16:13:55.559Z,26.51
2022-08-20T16:16:39.297Z,26.56
2022-08-20T16:19:47.072Z,26.59
2022-08-20T16:22:20.239Z,26.57
2022-08-20T16:24:52.359Z,26.64
2022-08-20T16:27:52.984Z,26.58
2022-08-20T16:30:41.966Z,26.62
2022-08-20T16:33:27.909Z,26.46
2022-08-20T16:36:11.261Z,26.52
2022-08-20T16:38:49.830Z,26.46
2022-08-20T16:41:43.673Z,26.36
2022-08-20T16:44:33.676Z,26.23
2022-08-20T16:47:20.941Z,26.12
2022-08-20T16:50:22.914Z,26.04
2022-08-20T16:52:55.058Z,26.04
2022-08-20T16:55:27.128Z,25.99
2022-08-20T16:57:59.472Z,25.97
2022-08-20T17:00:45.382Z,25.95
2022-08-20T17:03:31.360Z,25.85
2022-08-20T17:06:24.390Z,25.74
2022-08-20T17:08:56.529Z,25.50
2022-08-20T17:11:33.263Z,25.46
2022-08-20T17:14:12.490Z,25.31
2022-08-20T17:16:52.611Z,25.22
2022-08-20T17:19:32.541Z,25.15
2022-08-20T17:22:14.778Z,25.21
2022-08-20T17:24:47.935Z,25.15
2022-08-20T17:27:49.444Z,25.13
2022-08-20T17:30:28.857Z,25.07
2022-08-20T17:33:08.986Z,25.05
2022-08-20T17:35:43.260Z,24.94
2022-08-20T17:38:38.107Z,24.88
2022-08-20T17:41:22.240Z,24.74
2022-08-20T17:44:04.751Z,24.60
2022-08-20T17:46:45.134Z,24.54
2022-08-20T17:49:43.900Z,24.40
2022-08-20T17:52:45.741Z,24.26
2022-08-20T17:55:19.177Z,24.27
2022-08-20T17:57:56.802Z,24.26
2022-08-20T18:00:29.678Z,24.17
2022-08-20T18:03:26.609Z,24.15
2022-08-20T18:06:08.702Z,24.12
2022-08-20T18:08:58.001Z,24.06
2022-08-20T18:11:37.603Z,23.98
2022-08-20T18:14:34.273Z,23.89
2022-08-20T18:17:51.378Z,23.79
2022-08-20T18:20:45.043Z,23.77
2022-08-20T18:23:41.414Z,23.69
2022-08-20T18:26:26.397Z,23.58
2022-08-20T18:29:12.801Z,23.50
2022-08-20T18:31:50.646Z,23.43
2022-08-20T18:34:28.799Z,23.40
2022-08-20T18:37:05.496Z,23.35
2022-08-20T18:39:44.759Z,23.28
2022-08-20T18:42:45.335Z,23.25
2022-08-20T18:45:34.536Z,23.19
2022-08-20T18:48:06.895Z,23.09
2022-08-20T18:50:38.753Z,23.04
2022-08-20T18:53:22.350Z,22.99
2022-08-20T18:56:08.750Z,22.90
2022-08-20T18:59:06.856Z,22.82
2022-08-20T19:01:42.508Z,22.76
2022-08-20T19:04:32.067Z,22.74
2022-08-20T19:07:06.481Z,22.71
2022-08-20T19:10:12.939Z,22.64
2022-08-20T19:13:46.267Z,22.53
2022-08-20T19:16:53.459Z,22.45
2022-08-20T19:19:30.802Z,22.42
2022-08-20T19:22:05.409Z,22.38
2022-08-20T19:24:43.571Z,22.36
2022-08-20T19:27:17.269Z,22.39
2022-08-20T19:29:56.924Z,22.38
2022-08-20T19:32:32.559Z,22.32
2022-08-20T19:35:08.190Z,22.30
2022-08-20T19:37:50.823Z,22.25
2022-08-20T19:40:38.985Z,22.24
2022-08-20T19:43:19.459Z,22.20
2022-08-20T19:45:54.544Z,22.12
2022-08-20T19:48:42.613Z,22.10
2022-08-20T19:51:31.459Z,22.10
2022-08-20T19:54:03.922Z,22.06
2022-08-20T19:56:41.418Z,22.07
2022-08-20T19:59:21.197Z,22.05
2022-08-20T20:02:20.084Z,22.06
2022-08-20T20:04:55.485Z,22.00
2022-08-20T20:07:46.483Z,22.00
2022-08-20T20:10:31.774Z,21.98
2022-08-20T20:13:11.534Z,21.93
2022-08-20T20:15:44.452Z,21.89
2022-08-20T20:18:16.451Z,21.89
2022-08-20T20:20:58.228Z,21.86
2022-08-20T20:23:41.714Z,21.84
2022-08-20T20:26:20.438Z,21.85
2022-08-20T20:29:09.794Z,21.82
2022-08-20T20:32:00.074Z,21.75
2022-08-20T20:34:37.470Z,21.67
2022-08-20T20:37:49.565Z,21.65
2022-08-20T20:40:28.988Z,21.66
2022-08-20T20:43:08.892Z,21.61
2022-08-20T20:45:45.189Z,21.61
2022-08-20T20:48:25.866Z,21.59
2022-08-20T20:50:58.379Z,21.62
2022-08-20T20:53:49.561Z,21.60
2022-08-20T20:56:30.604Z,21.57
2022-08-20T20:59:06.812Z,21.57
2022-08-20T21:01:49.344Z,21.55
2022-08-20T21:04:24.908Z,21.53
2022-08-20T21:06:59.598Z,21.50
2022-08-20T21:09:31.686Z,21.51
2022-08-20T21:12:04.658Z,21.44
2022-08-20T21:14:37.135Z,21.41
2022-08-20T21:17:13.641Z,21.36
2022-08-20T21:19:45.726Z,21.31
2022-08-20T21:22:19.402Z,21.27
2022-08-20T21:24:51.570Z,21.20
2022-08-20T21:27:27.274Z,21.18
2022-08-20T21:29:59.307Z,21.15
2022-08-20T21:32:31.298Z,21.11
2022-08-20T21:35:03.613Z,21.10
2022-08-20T21:37:36.165Z,21.11
2022-08-20T21:40:10.161Z,21.06
2022-08-20T21:42:44.235Z,21.03
2022-08-20T21:45:18.523Z,21.02
2022-08-20T21:47:52.144Z,21.03
2022-08-20T21:50:25.103Z,21.00
2022-08-20T21:52:59.322Z,20.95
2022-08-20T21:55:39.196Z,20.92
2022-08-20T21:58:12.579Z,20.89
2022-08-20T22:01:01.490Z,20.90
2022-08-20T22:03:38.495Z,20.86
2022-08-20T22:06:14.536Z,20.81
2022-08-20T22:08:46.583Z,20.76
2022-08-20T22:11:18.784Z,20.70
2022-08-20T22:13:51.226Z,20.68
2022-08-20T22:16:23.665Z,20.66
2022-08-20T22:18:55.608Z,20.65
2022-08-20T22:21:32.766Z,20.58
2022-08-20T22:24:08.885Z,20.52
2022-08-20T22:26:41.834Z,20.50
2022-08-20T22:29:13.855Z,20.49
2022-08-20T22:31:46.194Z,20.52
2022-08-20T22:34:20.937Z,20.49
2022-08-20T22:36:54.245Z,20.50
2022-08-20T22:39:26.290Z,20.45
2022-08-20T22:41:58.985Z,20.41
2022-08-20T22:44:31.034Z,20.38
2022-08-20T22:47:07.319Z,20.39
2022-08-20T22:49:41.627Z,20.37
2022-08-20T22:52:13.702Z,20.37
2022-08-20T22:54:45.909Z,20.33
2022-08-20T22:57:20.345Z,20.31
2022-08-20T22:59:53.267Z,20.34
2022-08-20T23:02:25.796Z,20.36
2022-08-20T23:04:57.892Z,20.31
2022-08-20T23:07:30.285Z,20.30
2022-08-20T23:10:02.318Z,20.27
2022-08-20T23:12:34.327Z,20.22
2022-08-20T23:15:07.737Z,20.19
2022-08-20T23:17:40.006Z,20.18
2022-08-20T23:20:15.332Z,20.21
2022-08-20T23:22:47.302Z,20.15
2022-08-20T23:25:19.278Z,20.12
2022-08-20T23:27:55.215Z,20.18
2022-08-20T23:30:28.068Z,20.23
2022-08-20T23:33:01.724Z,20.25
2022-08-20T23:35:33.955Z,20.24
2022-08-20T23:38:06.642Z,20.22
2022-08-20T23:40:38.915Z,20.12
2022-08-20T23:43:11.118Z,20.05
2022-08-20T23:45:43.177Z,19.97
2022-08-20T23:48:15.161Z,19.97
2022-08-20T23:50:47.152Z,19.97
2022-08-20T23:53:19.136Z,19.99
2022-08-20T23:55:51.098Z,19.99
2022-08-20T23:58:23.086Z,19.94
